createdAt,value
2023-02-16T00:03:52.624Z,8.57
2023-02-16T00:13:57.285Z,8.63
2023-02-16T00:24:00.478Z,9.40
2023-02-16T00:34:24.472Z,8.47
2023-02-16T00:44:35.923Z,8.93
2023-02-16T00:54:40.506Z,7.57
2023-02-16T01:04:43.802Z,7.50
2023-02-16T01:14:52.940Z,8.90
2023-02-16T01:24:56.091Z,8.03
2023-02-16T01:35:02.513Z,8.00
2023-02-16T01:45:10.767Z,7.50
2023-02-16T01:55:21.422Z,7.37
2023-02-16T02:05:37.855Z,7.50
2023-02-16T02:15:45.471Z,7.63
2023-02-16T02:26:24.916Z,7.83
2023-02-16T02:36:36.832Z,7.50
2023-02-16T02:46:40.664Z,7.77
2023-02-16T02:57:07.026Z,7.10
2023-02-16T03:07:12.732Z,6.60
2023-02-16T03:17:36.917Z,6.57
2023-02-16T03:28:00.848Z,6.20
2023-02-16T03:38:05.765Z,6.60
2023-02-16T03:48:09.668Z,6.73
2023-02-16T03:58:17.291Z,6.23
2023-02-16T04:08:20.561Z,6.50
2023-02-16T04:18:25.099Z,6.80
2023-02-16T04:28:28.370Z,8.13
2023-02-16T04:38:32.909Z,8.80
2023-02-16T04:48:36.110Z,9.30
2023-02-16T04:58:40.757Z,8.47
2023-02-16T05:08:44.007Z,8.20
2023-02-16T05:18:48.585Z,8.57
2023-02-16T05:28:51.813Z,8.27
2023-02-16T05:38:56.772Z,8.87
2023-02-16T05:49:00.644Z,8.53
2023-02-16T05:59:05.269Z,6.93
2023-02-16T06:09:09.906Z,6.90
2023-02-16T06:19:15.419Z,6.77
2023-02-16T06:29:18.609Z,7.37
2023-02-16T06:39:23.195Z,7.30
2023-02-16T06:49:27.981Z,7.43
2023-02-16T06:59:32.702Z,6.67
2023-02-16T07:09:37.470Z,5.87
2023-02-16T07:19:42.221Z,6.20
2023-02-16T07:29:46.893Z,6.17
2023-02-16T07:39:53.022Z,5.90
2023-02-16T07:49:56.249Z,5.80
2023-02-16T08:00:00.939Z,5.53
2023-02-16T08:10:05.923Z,5.37
2023-02-16T08:20:11.528Z,5.73
2023-02-16T08:30:18.359Z,5.63
2023-02-16T08:40:25.307Z,4.53
2023-02-16T08:50:28.910Z,4.40
2023-02-16T09:00:37.672Z,4.93
2023-02-16T09:10:40.916Z,5.07
2023-02-16T09:20:47.095Z,4.40
2023-02-16T09:30:50.870Z,4.90
2023-02-16T09:40:57.276Z,4.90
2023-02-16T09:51:02.312Z,4.20
2023-02-16T10:01:14.388Z,5.20
2023-02-16T10:11:41.739Z,5.50
2023-02-16T10:21:49.301Z,5.37
2023-02-16T10:32:01.697Z,6.30
2023-02-16T10:42:15.035Z,6.10
2023-02-16T10:52:19.426Z,6.60
2023-02-16T11:02:27.498Z,5.37
2023-02-16T11:12:32.458Z,5.97
2023-02-16T11:22:38.766Z,6.40
2023-02-16T11:32:42.103Z,6.00
2023-02-16T11:42:49.445Z,5.47
2023-02-16T11:52:54.274Z,5.53
2023-02-16T12:03:15.374Z,5.93
2023-02-16T12:13:25.678Z,5.70
2023-02-16T12:23:40.742Z,5.30
2023-02-16T12:33:51.819Z,5.00
2023-02-16T12:44:01.983Z,4.63
2023-02-16T12:54:10.904Z,4.50
2023-02-16T13:04:22.589Z,5.97
2023-02-16T13:14:31.054Z,6.13
2023-02-16T13:24:46.865Z,5.40
2023-02-16T13:35:07.060Z,6.20
2023-02-16T13:45:19.425Z,6.07
2023-02-16T13:55:25.879Z,7.00
2023-02-16T14:05:34.873Z,7.23
2023-02-16T14:15:52.191Z,6.10
2023-02-16T14:26:04.699Z,8.00
2023-02-16T14:36:15.712Z,7.20
2023-02-16T14:46:43.366Z,8.17
2023-02-16T14:56:48.772Z,8.98
2023-02-16T15:06:53.384Z,8.90
2023-02-16T15:16:58.861Z,9.77
2023-02-16T15:27:03.603Z,9.38
2023-02-16T15:37:26.521Z,10.00
2023-02-16T15:47:31.110Z,12.10
2023-02-16T15:57:37.225Z,12.68
2023-02-16T16:07:43.181Z,11.73
2023-02-16T16:17:46.769Z,12.13
2023-02-16T16:27:51.298Z,12.87
2023-02-16T16:37:54.803Z,12.23
2023-02-16T16:48:00.090Z,12.00
2023-02-16T16:58:06.227Z,12.67
2023-02-16T17:08:11.999Z,12.70
2023-02-16T17:18:17.567Z,13.63
2023-02-16T17:28:22.816Z,12.83
2023-02-16T17:38:26.552Z,12.77
2023-02-16T17:48:31.451Z,13.60
2023-02-16T17:58:34.575Z,26.93
2023-02-16T18:08:39.238Z,14.77
2023-02-16T18:18:42.487Z,18.30
2023-02-16T18:28:47.088Z,41.97
2023-02-16T18:38:51.777Z,20.30
2023-02-16T18:48:56.396Z,15.83
2023-02-16T18:58:59.600Z,15.60
2023-02-16T19:09:04.186Z,14.73
2023-02-16T19:19:07.570Z,14.93
2023-02-16T19:29:12.869Z,14.80
2023-02-16T19:39:16.120Z,14.00
2023-02-16T19:49:20.756Z,12.93
2023-02-16T19:59:24.151Z,11.67
2023-02-16T20:09:29.085Z,9.50
2023-02-16T20:19:32.243Z,9.27
2023-02-16T20:29:36.825Z,9.23
2023-02-16T20:39:40.041Z,8.50
2023-02-16T20:49:44.581Z,8.87
2023-02-16T20:59:47.796Z,8.27
2023-02-16T21:09:52.392Z,8.90
2023-02-16T21:19:55.555Z,8.50
2023-02-16T21:30:00.237Z,8.00
2023-02-16T21:40:21.177Z,7.33
2023-02-16T21:50:25.989Z,7.90
2023-02-16T22:00:29.396Z,6.83
2023-02-16T22:10:35.706Z,7.40
2023-02-16T22:20:38.950Z,6.97
2023-02-16T22:30:45.350Z,7.00
2023-02-16T22:40:48.712Z,5.97
2023-02-16T22:50:59.498Z,6.43
2023-02-16T23:01:02.719Z,6.80
2023-02-16T23:11:07.428Z,6.40
2023-02-16T23:21:15.808Z,5.47
2023-02-16T23:31:20.821Z,6.30
2023-02-16T23:41:24.103Z,6.30
2023-02-16T23:51:28.949Z,6.10
